sensor_id;sensor_type;location;lat;lon;timestamp;P1;durP1;ratioP1;P2;durP2;ratioP2
29938;SDS011;16799;50.844;5.304;2023-07-20T00:01:59;7.13;;;4.73;;
29938;SDS011;16799;50.844;5.304;2023-07-20T00:04:24;7.23;;;4.93;;
29938;SDS011;16799;50.844;5.304;2023-07-20T00:06:50;10.07;;;5.93;;
29938;SDS011;16799;50.844;5.304;2023-07-20T00:09:16;7.83;;;5.37;;
29938;SDS011;16799;50.844;5.304;2023-07-20T00:11:44;10.13;;;6.23;;
29938;SDS011;16799;50.844;5.304;2023-07-20T00:14:15;7.87;;;4.10;;
29938;SDS011;16799;50.844;5.304;2023-07-20T00:16:41;4.50;;;3.90;;
29938;SDS011;16799;50.844;5.304;2023-07-20T00:19:07;8.60;;;5.80;;
29938;SDS011;16799;50.844;5.304;2023-07-20T00:21:33;6.17;;;5.20;;
29938;SDS011;16799;50.844;5.304;2023-07-20T00:23:59;10.23;;;4.80;;
29938;SDS011;16799;50.844;5.304;2023-07-20T00:26:24;7.90;;;4.90;;
29938;SDS011;16799;50.844;5.304;2023-07-20T00:28:50;7.13;;;4.53;;
29938;SDS011;16799;50.844;5.304;2023-07-20T00:31:16;8.00;;;6.00;;
29938;SDS011;16799;50.844;5.304;2023-07-20T00:33:42;12.90;;;4.93;;
29938;SDS011;16799;50.844;5.304;2023-07-20T00:36:08;9.37;;;4.60;;
29938;SDS011;16799;50.844;5.304;2023-07-20T00:38:34;11.00;;;5.10;;
29938;SDS011;16799;50.844;5.304;2023-07-20T00:40:59;8.10;;;4.13;;
29938;SDS011;16799;50.844;5.304;2023-07-20T00:43:25;4.93;;;4.50;;
29938;SDS011;16799;50.844;5.304;2023-07-20T00:45:50;7.90;;;3.83;;
29938;SDS011;16799;50.844;5.304;2023-07-20T00:48:16;4.43;;;3.93;;
29938;SDS011;16799;50.844;5.304;2023-07-20T00:50:42;11.50;;;4.23;;
29938;SDS011;16799;50.844;5.304;2023-07-20T00:53:08;13.37;;;4.40;;
29938;SDS011;16799;50.844;5.304;2023-07-20T00:55:34;10.40;;;4.00;;
29938;SDS011;16799;50.844;5.304;2023-07-20T00:58:00;5.50;;;4.57;;
29938;SDS011;16799;50.844;5.304;2023-07-20T01:00:26;12.43;;;4.57;;
29938;SDS011;16799;50.844;5.304;2023-07-20T01:02:52;17.00;;;4.50;;
29938;SDS011;16799;50.844;5.304;2023-07-20T01:05:18;13.90;;;3.50;;
29938;SDS011;16799;50.844;5.304;2023-07-20T01:10:21;4.10;;;3.70;;
29938;SDS011;16799;50.844;5.304;2023-07-20T01:12:56;7.90;;;4.03;;
29938;SDS011;16799;50.844;5.304;2023-07-20T01:15:23;5.83;;;3.30;;
29938;SDS011;16799;50.844;5.304;2023-07-20T01:17:49;5.10;;;4.17;;
29938;SDS011;16799;50.844;5.304;2023-07-20T01:20:15;5.03;;;4.27;;
29938;SDS011;16799;50.844;5.304;2023-07-20T01:22:48;5.60;;;4.40;;
29938;SDS011;16799;50.844;5.304;2023-07-20T01:25:26;6.57;;;4.60;;
29938;SDS011;16799;50.844;5.304;2023-07-20T01:31:24;7.40;;;3.77;;
29938;SDS011;16799;50.844;5.304;2023-07-20T01:33:52;6.27;;;5.17;;
29938;SDS011;16799;50.844;5.304;2023-07-20T01:36:21;9.07;;;4.43;;
29938;SDS011;16799;50.844;5.304;2023-07-20T01:38:49;7.83;;;3.90;;
29938;SDS011;16799;50.844;5.304;2023-07-20T01:41:17;4.87;;;3.57;;
29938;SDS011;16799;50.844;5.304;2023-07-20T01:43:43;8.30;;;4.17;;
29938;SDS011;16799;50.844;5.304;2023-07-20T01:46:09;6.13;;;4.30;;
29938;SDS011;16799;50.844;5.304;2023-07-20T01:48:35;6.73;;;4.03;;
29938;SDS011;16799;50.844;5.304;2023-07-20T01:51:00;4.07;;;3.70;;
29938;SDS011;16799;50.844;5.304;2023-07-20T01:53:26;11.60;;;4.70;;
29938;SDS011;16799;50.844;5.304;2023-07-20T01:55:52;4.80;;;4.40;;
29938;SDS011;16799;50.844;5.304;2023-07-20T01:58:21;7.93;;;4.80;;
29938;SDS011;16799;50.844;5.304;2023-07-20T02:00:47;6.80;;;4.40;;
29938;SDS011;16799;50.844;5.304;2023-07-20T02:03:13;7.43;;;4.77;;
29938;SDS011;16799;50.844;5.304;2023-07-20T02:05:39;4.03;;;3.70;;
29938;SDS011;16799;50.844;5.304;2023-07-20T02:08:04;6.87;;;4.33;;
29938;SDS011;16799;50.844;5.304;2023-07-20T02:10:30;7.87;;;4.00;;
29938;SDS011;16799;50.844;5.304;2023-07-20T02:12:56;6.10;;;4.10;;
29938;SDS011;16799;50.844;5.304;2023-07-20T02:15:21;16.63;;;4.63;;
29938;SDS011;16799;50.844;5.304;2023-07-20T02:17:47;9.80;;;5.33;;
29938;SDS011;16799;50.844;5.304;2023-07-20T02:20:13;5.43;;;4.53;;
29938;SDS011;16799;50.844;5.304;2023-07-20T02:22:39;10.80;;;5.83;;
29938;SDS011;16799;50.844;5.304;2023-07-20T02:25:05;5.90;;;4.77;;
29938;SDS011;16799;50.844;5.304;2023-07-20T02:27:32;5.07;;;4.50;;
29938;SDS011;16799;50.844;5.304;2023-07-20T02:29:59;9.00;;;4.53;;
29938;SDS011;16799;50.844;5.304;2023-07-20T02:32:24;8.50;;;4.53;;
29938;SDS011;16799;50.844;5.304;2023-07-20T02:34:50;9.37;;;5.70;;
29938;SDS011;16799;50.844;5.304;2023-07-20T02:37:16;9.80;;;5.40;;
29938;SDS011;16799;50.844;5.304;2023-07-20T02:39:42;10.20;;;5.63;;
29938;SDS011;16799;50.844;5.304;2023-07-20T02:42:07;9.30;;;4.87;;
29938;SDS011;16799;50.844;5.304;2023-07-20T02:44:33;10.70;;;5.03;;
29938;SDS011;16799;50.844;5.304;2023-07-20T02:46:59;10.90;;;6.50;;
29938;SDS011;16799;50.844;5.304;2023-07-20T02:49:25;4.67;;;4.13;;
29938;SDS011;16799;50.844;5.304;2023-07-20T02:51:51;11.53;;;5.93;;
29938;SDS011;16799;50.844;5.304;2023-07-20T02:54:17;12.93;;;4.93;;
29938;SDS011;16799;50.844;5.304;2023-07-20T02:56:42;10.17;;;5.00;;
29938;SDS011;16799;50.844;5.304;2023-07-20T02:59:08;8.00;;;4.90;;
29938;SDS011;16799;50.844;5.304;2023-07-20T03:01:34;8.60;;;4.00;;
29938;SDS011;16799;50.844;5.304;2023-07-20T03:03:59;4.83;;;4.40;;
29938;SDS011;16799;50.844;5.304;2023-07-20T03:06:25;13.50;;;5.63;;
29938;SDS011;16799;50.844;5.304;2023-07-20T03:08:51;12.93;;;4.93;;
29938;SDS011;16799;50.844;5.304;2023-07-20T03:11:18;8.40;;;5.30;;
29938;SDS011;16799;50.844;5.304;2023-07-20T03:13:45;5.80;;;5.20;;
29938;SDS011;16799;50.844;5.304;2023-07-20T03:16:12;6.77;;;4.00;;
29938;SDS011;16799;50.844;5.304;2023-07-20T03:18:40;10.13;;;4.33;;
29938;SDS011;16799;50.844;5.304;2023-07-20T03:21:07;14.20;;;5.20;;
29938;SDS011;16799;50.844;5.304;2023-07-20T03:23:36;13.00;;;5.10;;
29938;SDS011;16799;50.844;5.304;2023-07-20T03:26:02;9.43;;;5.20;;
29938;SDS011;16799;50.844;5.304;2023-07-20T03:28:28;16.57;;;5.73;;
29938;SDS011;16799;50.844;5.304;2023-07-20T03:30:54;14.20;;;4.80;;
29938;SDS011;16799;50.844;5.304;2023-07-20T03:33:26;13.63;;;6.07;;
29938;SDS011;16799;50.844;5.304;2023-07-20T03:35:54;9.23;;;4.70;;
29938;SDS011;16799;50.844;5.304;2023-07-20T03:38:20;8.60;;;5.70;;
29938;SDS011;16799;50.844;5.304;2023-07-20T03:40:50;9.50;;;5.93;;
29938;SDS011;16799;50.844;5.304;2023-07-20T03:43:16;17.23;;;5.90;;
29938;SDS011;16799;50.844;5.304;2023-07-20T03:45:42;12.83;;;6.47;;
29938;SDS011;16799;50.844;5.304;2023-07-20T03:48:08;14.00;;;5.97;;
29938;SDS011;16799;50.844;5.304;2023-07-20T03:50:33;17.13;;;5.90;;
29938;SDS011;16799;50.844;5.304;2023-07-20T03:52:59;7.27;;;5.80;;
29938;SDS011;16799;50.844;5.304;2023-07-20T03:55:25;9.27;;;6.07;;
29938;SDS011;16799;50.844;5.304;2023-07-20T03:57:50;7.90;;;5.80;;
29938;SDS011;16799;50.844;5.304;2023-07-20T04:00:16;15.37;;;7.00;;
29938;SDS011;16799;50.844;5.304;2023-07-20T04:02:42;9.80;;;6.40;;
29938;SDS011;16799;50.844;5.304;2023-07-20T04:05:08;11.80;;;7.13;;
29938;SDS011;16799;50.844;5.304;2023-07-20T04:07:34;17.70;;;8.13;;
29938;SDS011;16799;50.844;5.304;2023-07-20T04:09:59;9.43;;;7.27;;
29938;SDS011;16799;50.844;5.304;2023-07-20T04:12:25;16.73;;;8.00;;
29938;SDS011;16799;50.844;5.304;2023-07-20T04:14:51;10.47;;;6.70;;
29938;SDS011;16799;50.844;5.304;2023-07-20T04:17:16;14.13;;;7.43;;
29938;SDS011;16799;50.844;5.304;2023-07-20T04:19:43;11.60;;;6.73;;
29938;SDS011;16799;50.844;5.304;2023-07-20T04:22:09;16.73;;;7.27;;
29938;SDS011;16799;50.844;5.304;2023-07-20T04:24:34;10.83;;;6.27;;
29938;SDS011;16799;50.844;5.304;2023-07-20T04:27:00;9.10;;;6.63;;
29938;SDS011;16799;50.844;5.304;2023-07-20T04:29:26;31.23;;;7.10;;
29938;SDS011;16799;50.844;5.304;2023-07-20T04:31:51;18.50;;;8.20;;
29938;SDS011;16799;50.844;5.304;2023-07-20T04:34:17;22.20;;;8.27;;
29938;SDS011;16799;50.844;5.304;2023-07-20T04:36:42;18.17;;;8.17;;
29938;SDS011;16799;50.844;5.304;2023-07-20T04:39:09;23.67;;;8.23;;
29938;SDS011;16799;50.844;5.304;2023-07-20T04:41:35;10.10;;;8.87;;
29938;SDS011;16799;50.844;5.304;2023-07-20T04:44:00;22.93;;;9.23;;
29938;SDS011;16799;50.844;5.304;2023-07-20T04:46:26;21.30;;;10.17;;
29938;SDS011;16799;50.844;5.304;2023-07-20T04:48:52;21.33;;;10.80;;
29938;SDS011;16799;50.844;5.304;2023-07-20T04:51:19;17.47;;;9.47;;
29938;SDS011;16799;50.844;5.304;2023-07-20T04:53:46;19.37;;;11.07;;
29938;SDS011;16799;50.844;5.304;2023-07-20T04:56:12;19.77;;;12.97;;
29938;SDS011;16799;50.844;5.304;2023-07-20T04:58:38;15.93;;;11.97;;
29938;SDS011;16799;50.844;5.304;2023-07-20T05:01:04;26.13;;;13.90;;
29938;SDS011;16799;50.844;5.304;2023-07-20T05:03:29;21.90;;;12.40;;
29938;SDS011;16799;50.844;5.304;2023-07-20T05:05:55;19.13;;;12.90;;
29938;SDS011;16799;50.844;5.304;2023-07-20T05:08:21;19.83;;;12.80;;
29938;SDS011;16799;50.844;5.304;2023-07-20T05:10:47;23.57;;;12.03;;
29938;SDS011;16799;50.844;5.304;2023-07-20T05:13:13;20.27;;;13.57;;
29938;SDS011;16799;50.844;5.304;2023-07-20T05:15:39;31.80;;;14.17;;
29938;SDS011;16799;50.844;5.304;2023-07-20T05:18:05;22.47;;;12.10;;
29938;SDS011;16799;50.844;5.304;2023-07-20T05:20:30;16.13;;;12.40;;
29938;SDS011;16799;50.844;5.304;2023-07-20T05:22:58;19.07;;;12.40;;
29938;SDS011;16799;50.844;5.304;2023-07-20T05:25:24;18.03;;;11.33;;
29938;SDS011;16799;50.844;5.304;2023-07-20T05:27:49;18.00;;;11.80;;
29938;SDS011;16799;50.844;5.304;2023-07-20T05:30:15;14.33;;;10.53;;
29938;SDS011;16799;50.844;5.304;2023-07-20T05:32:41;21.43;;;12.50;;
29938;SDS011;16799;50.844;5.304;2023-07-20T05:35:07;23.20;;;12.30;;
29938;SDS011;16799;50.844;5.304;2023-07-20T05:37:33;18.53;;;10.50;;
29938;SDS011;16799;50.844;5.304;2023-07-20T05:39:59;14.50;;;11.53;;
29938;SDS011;16799;50.844;5.304;2023-07-20T05:42:25;15.37;;;10.30;;
29938;SDS011;16799;50.844;5.304;2023-07-20T05:44:50;18.77;;;11.77;;
29938;SDS011;16799;50.844;5.304;2023-07-20T05:47:18;16.30;;;11.83;;
29938;SDS011;16799;50.844;5.304;2023-07-20T05:49:43;16.27;;;12.20;;
29938;SDS011;16799;50.844;5.304;2023-07-20T05:52:09;19.07;;;12.67;;
29938;SDS011;16799;50.844;5.304;2023-07-20T05:54:34;17.73;;;11.67;;
29938;SDS011;16799;50.844;5.304;2023-07-20T05:57:00;18.80;;;11.07;;
29938;SDS011;16799;50.844;5.304;2023-07-20T05:59:26;23.73;;;11.23;;
29938;SDS011;16799;50.844;5.304;2023-07-20T06:01:54;26.97;;;13.63;;
29938;SDS011;16799;50.844;5.304;2023-07-20T06:04:20;18.13;;;11.90;;
29938;SDS011;16799;50.844;5.304;2023-07-20T06:06:45;20.93;;;13.23;;
29938;SDS011;16799;50.844;5.304;2023-07-20T06:09:11;19.67;;;12.67;;
29938;SDS011;16799;50.844;5.304;2023-07-20T06:11:37;28.00;;;15.17;;
29938;SDS011;16799;50.844;5.304;2023-07-20T06:14:03;22.40;;;14.40;;
29938;SDS011;16799;50.844;5.304;2023-07-20T06:16:29;24.47;;;15.30;;
29938;SDS011;16799;50.844;5.304;2023-07-20T06:18:55;23.03;;;16.00;;
29938;SDS011;16799;50.844;5.304;2023-07-20T06:21:21;24.57;;;16.67;;
29938;SDS011;16799;50.844;5.304;2023-07-20T06:23:47;23.20;;;16.00;;
29938;SDS011;16799;50.844;5.304;2023-07-20T06:26:12;24.27;;;15.73;;
29938;SDS011;16799;50.844;5.304;2023-07-20T06:28:38;23.90;;;14.70;;
29938;SDS011;16799;50.844;5.304;2023-07-20T06:31:04;26.80;;;16.70;;
29938;SDS011;16799;50.844;5.304;2023-07-20T06:33:29;21.73;;;14.13;;
29938;SDS011;16799;50.844;5.304;2023-07-20T06:35:55;19.20;;;14.60;;
29938;SDS011;16799;50.844;5.304;2023-07-20T06:38:23;22.50;;;15.03;;
29938;SDS011;16799;50.844;5.304;2023-07-20T06:40:49;20.00;;;14.60;;
29938;SDS011;16799;50.844;5.304;2023-07-20T06:43:15;17.47;;;12.70;;
29938;SDS011;16799;50.844;5.304;2023-07-20T06:45:41;29.33;;;17.33;;
29938;SDS011;16799;50.844;5.304;2023-07-20T06:48:07;14.43;;;12.73;;
29938;SDS011;16799;50.844;5.304;2023-07-20T06:50:32;14.33;;;11.60;;
29938;SDS011;16799;50.844;5.304;2023-07-20T06:52:58;15.67;;;13.33;;
29938;SDS011;16799;50.844;5.304;2023-07-20T06:55:25;17.07;;;14.80;;
29938;SDS011;16799;50.844;5.304;2023-07-20T06:57:51;20.00;;;14.30;;
29938;SDS011;16799;50.844;5.304;2023-07-20T07:00:17;19.57;;;12.73;;
29938;SDS011;16799;50.844;5.304;2023-07-20T07:02:43;16.77;;;12.50;;
29938;SDS011;16799;50.844;5.304;2023-07-20T07:05:09;15.13;;;11.87;;
29938;SDS011;16799;50.844;5.304;2023-07-20T07:07:34;18.10;;;13.67;;
29938;SDS011;16799;50.844;5.304;2023-07-20T07:10:00;14.50;;;13.00;;
29938;SDS011;16799;50.844;5.304;2023-07-20T07:12:29;15.70;;;13.67;;
29938;SDS011;16799;50.844;5.304;2023-07-20T07:14:55;13.97;;;11.77;;
29938;SDS011;16799;50.844;5.304;2023-07-20T07:17:21;17.20;;;13.13;;
29938;SDS011;16799;50.844;5.304;2023-07-20T07:19:46;13.67;;;10.60;;
29938;SDS011;16799;50.844;5.304;2023-07-20T07:22:12;15.63;;;10.13;;
29938;SDS011;16799;50.844;5.304;2023-07-20T07:24:39;20.37;;;11.67;;
29938;SDS011;16799;50.844;5.304;2023-07-20T07:27:07;14.13;;;11.90;;
29938;SDS011;16799;50.844;5.304;2023-07-20T07:29:34;13.27;;;10.47;;
29938;SDS011;16799;50.844;5.304;2023-07-20T07:31:59;16.10;;;11.83;;
29938;SDS011;16799;50.844;5.304;2023-07-20T07:34:26;15.30;;;10.67;;
29938;SDS011;16799;50.844;5.304;2023-07-20T07:36:52;11.03;;;9.80;;
29938;SDS011;16799;50.844;5.304;2023-07-20T07:39:18;11.23;;;9.80;;
29938;SDS011;16799;50.844;5.304;2023-07-20T07:41:44;11.83;;;7.20;;
29938;SDS011;16799;50.844;5.304;2023-07-20T07:44:10;9.30;;;8.50;;
29938;SDS011;16799;50.844;5.304;2023-07-20T07:46:35;9.50;;;8.10;;
29938;SDS011;16799;50.844;5.304;2023-07-20T07:49:01;10.60;;;8.50;;
29938;SDS011;16799;50.844;5.304;2023-07-20T07:51:26;17.77;;;11.00;;
29938;SDS011;16799;50.844;5.304;2023-07-20T07:53:52;11.63;;;10.43;;
29938;SDS011;16799;50.844;5.304;2023-07-20T07:56:19;10.87;;;9.30;;
29938;SDS011;16799;50.844;5.304;2023-07-20T07:58:50;11.03;;;9.40;;
29938;SDS011;16799;50.844;5.304;2023-07-20T08:01:19;8.20;;;7.33;;
29938;SDS011;16799;50.844;5.304;2023-07-20T08:03:45;9.07;;;8.13;;
29938;SDS011;16799;50.844;5.304;2023-07-20T08:06:12;8.10;;;7.40;;
29938;SDS011;16799;50.844;5.304;2023-07-20T08:08:38;9.70;;;7.63;;
29938;SDS011;16799;50.844;5.304;2023-07-20T08:11:04;9.40;;;8.30;;
29938;SDS011;16799;50.844;5.304;2023-07-20T08:13:30;7.20;;;6.70;;
29938;SDS011;16799;50.844;5.304;2023-07-20T08:15:57;7.30;;;6.80;;
29938;SDS011;16799;50.844;5.304;2023-07-20T08:18:22;6.40;;;5.90;;
29938;SDS011;16799;50.844;5.304;2023-07-20T08:20:48;8.23;;;5.70;;
29938;SDS011;16799;50.844;5.304;2023-07-20T08:23:14;6.57;;;6.03;;
29938;SDS011;16799;50.844;5.304;2023-07-20T08:25:40;6.00;;;5.40;;
29938;SDS011;16799;50.844;5.304;2023-07-20T08:28:13;6.80;;;6.30;;
29938;SDS011;16799;50.844;5.304;2023-07-20T08:30:43;6.70;;;6.10;;
29938;SDS011;16799;50.844;5.304;2023-07-20T08:33:13;8.63;;;4.83;;
29938;SDS011;16799;50.844;5.304;2023-07-20T08:35:39;6.67;;;4.80;;
29938;SDS011;16799;50.844;5.304;2023-07-20T08:38:05;6.00;;;5.33;;
29938;SDS011;16799;50.844;5.304;2023-07-20T08:40:32;7.13;;;5.13;;
29938;SDS011;16799;50.844;5.304;2023-07-20T08:42:59;6.40;;;5.80;;
29938;SDS011;16799;50.844;5.304;2023-07-20T08:45:26;7.33;;;5.30;;
29938;SDS011;16799;50.844;5.304;2023-07-20T08:47:56;4.43;;;3.83;;
29938;SDS011;16799;50.844;5.304;2023-07-20T08:50:25;8.03;;;5.00;;
29938;SDS011;16799;50.844;5.304;2023-07-20T08:52:52;6.17;;;5.63;;
29938;SDS011;16799;50.844;5.304;2023-07-20T08:55:19;8.03;;;4.60;;
29938;SDS011;16799;50.844;5.304;2023-07-20T08:57:47;6.50;;;5.97;;
29938;SDS011;16799;50.844;5.304;2023-07-20T09:00:17;6.43;;;5.47;;
29938;SDS011;16799;50.844;5.304;2023-07-20T09:02:45;6.30;;;5.70;;
29938;SDS011;16799;50.844;5.304;2023-07-20T09:05:12;6.60;;;6.10;;
29938;SDS011;16799;50.844;5.304;2023-07-20T09:07:39;5.10;;;4.70;;
29938;SDS011;16799;50.844;5.304;2023-07-20T09:10:05;6.77;;;4.47;;
29938;SDS011;16799;50.844;5.304;2023-07-20T09:12:34;8.23;;;7.10;;
29938;SDS011;16799;50.844;5.304;2023-07-20T09:15:01;4.90;;;4.50;;
29938;SDS011;16799;50.844;5.304;2023-07-20T09:17:27;5.87;;;5.10;;
29938;SDS011;16799;50.844;5.304;2023-07-20T09:19:53;4.53;;;4.33;;
29938;SDS011;16799;50.844;5.304;2023-07-20T09:22:19;4.53;;;4.23;;
29938;SDS011;16799;50.844;5.304;2023-07-20T09:24:45;8.50;;;4.67;;
29938;SDS011;16799;50.844;5.304;2023-07-20T09:27:11;12.73;;;5.63;;
29938;SDS011;16799;50.844;5.304;2023-07-20T09:29:47;12.07;;;5.60;;
29938;SDS011;16799;50.844;5.304;2023-07-20T09:32:17;6.60;;;4.50;;
29938;SDS011;16799;50.844;5.304;2023-07-20T09:34:47;4.40;;;4.10;;
29938;SDS011;16799;50.844;5.304;2023-07-20T09:37:14;6.97;;;6.30;;
29938;SDS011;16799;50.844;5.304;2023-07-20T09:39:48;7.63;;;6.37;;
29938;SDS011;16799;50.844;5.304;2023-07-20T09:42:16;6.20;;;5.60;;
29938;SDS011;16799;50.844;5.304;2023-07-20T09:44:43;5.50;;;5.00;;
29938;SDS011;16799;50.844;5.304;2023-07-20T09:47:09;3.73;;;3.23;;
29938;SDS011;16799;50.844;5.304;2023-07-20T09:49:40;6.00;;;4.40;;
29938;SDS011;16799;50.844;5.304;2023-07-20T09:52:07;5.03;;;4.30;;
29938;SDS011;16799;50.844;5.304;2023-07-20T09:54:34;5.57;;;4.90;;
29938;SDS011;16799;50.844;5.304;2023-07-20T09:57:03;4.17;;;3.83;;
29938;SDS011;16799;50.844;5.304;2023-07-20T09:59:29;7.17;;;5.20;;
29938;SDS011;16799;50.844;5.304;2023-07-20T10:01:56;3.97;;;3.67;;
29938;SDS011;16799;50.844;5.304;2023-07-20T10:04:24;4.53;;;4.13;;
29938;SDS011;16799;50.844;5.304;2023-07-20T10:06:51;3.57;;;3.37;;
29938;SDS011;16799;50.844;5.304;2023-07-20T10:09:21;3.07;;;2.87;;
29938;SDS011;16799;50.844;5.304;2023-07-20T10:11:52;3.20;;;2.90;;
29938;SDS011;16799;50.844;5.304;2023-07-20T10:14:21;8.53;;;3.20;;
29938;SDS011;16799;50.844;5.304;2023-07-20T10:16:51;4.37;;;3.23;;
29938;SDS011;16799;50.844;5.304;2023-07-20T10:19:42;3.37;;;2.23;;
29938;SDS011;16799;50.844;5.304;2023-07-20T10:22:12;2.03;;;1.43;;
29938;SDS011;16799;50.844;5.304;2023-07-20T10:24:41;2.10;;;1.90;;
29938;SDS011;16799;50.844;5.304;2023-07-20T10:27:09;2.70;;;1.70;;
29938;SDS011;16799;50.844;5.304;2023-07-20T10:29:35;3.90;;;1.63;;
29938;SDS011;16799;50.844;5.304;2023-07-20T10:32:01;2.40;;;2.20;;
29938;SDS011;16799;50.844;5.304;2023-07-20T10:34:27;3.80;;;1.70;;
29938;SDS011;16799;50.844;5.304;2023-07-20T10:36:53;2.13;;;1.73;;
29938;SDS011;16799;50.844;5.304;2023-07-20T10:39:37;1.63;;;1.53;;
29938;SDS011;16799;50.844;5.304;2023-07-20T10:42:09;2.90;;;1.67;;
29938;SDS011;16799;50.844;5.304;2023-07-20T10:44:38;1.97;;;1.77;;
29938;SDS011;16799;50.844;5.304;2023-07-20T10:47:11;2.60;;;1.40;;
29938;SDS011;16799;50.844;5.304;2023-07-20T10:52:23;1.83;;;1.50;;
29938;SDS011;16799;50.844;5.304;2023-07-20T10:54:49;2.50;;;1.50;;
29938;SDS011;16799;50.844;5.304;2023-07-20T10:57:22;3.47;;;1.33;;
29938;SDS011;16799;50.844;5.304;2023-07-20T11:00:10;1.70;;;1.60;;
29938;SDS011;16799;50.844;5.304;2023-07-20T11:02:44;1.83;;;1.57;;
29938;SDS011;16799;50.844;5.304;2023-07-20T11:05:32;1.60;;;1.50;;
29938;SDS011;16799;50.844;5.304;2023-07-20T11:08:05;4.23;;;1.50;;
29938;SDS011;16799;50.844;5.304;2023-07-20T11:10:59;1.33;;;1.10;;
29938;SDS011;16799;50.844;5.304;2023-07-20T11:14:10;2.67;;;1.30;;
29938;SDS011;16799;50.844;5.304;2023-07-20T11:16:46;1.90;;;1.80;;
29938;SDS011;16799;50.844;5.304;2023-07-20T11:19:23;1.53;;;1.30;;
29938;SDS011;16799;50.844;5.304;2023-07-20T11:21:54;3.63;;;1.50;;
29938;SDS011;16799;50.844;5.304;2023-07-20T11:24:23;1.20;;;1.10;;
29938;SDS011;16799;50.844;5.304;2023-07-20T11:26:50;2.60;;;1.27;;
29938;SDS011;16799;50.844;5.304;2023-07-20T11:29:16;3.20;;;1.40;;
29938;SDS011;16799;50.844;5.304;2023-07-20T11:31:44;1.70;;;1.60;;
29938;SDS011;16799;50.844;5.304;2023-07-20T11:34:11;1.80;;;1.70;;
29938;SDS011;16799;50.844;5.304;2023-07-20T11:36:42;3.27;;;1.27;;
29938;SDS011;16799;50.844;5.304;2023-07-20T11:39:13;1.87;;;1.43;;
29938;SDS011;16799;50.844;5.304;2023-07-20T11:41:49;3.27;;;1.80;;
29938;SDS011;16799;50.844;5.304;2023-07-20T11:44:16;2.40;;;1.50;;
29938;SDS011;16799;50.844;5.304;2023-07-20T11:46:43;3.73;;;2.03;;
29938;SDS011;16799;50.844;5.304;2023-07-20T11:49:11;1.60;;;1.50;;
29938;SDS011;16799;50.844;5.304;2023-07-20T11:51:38;2.90;;;1.87;;
29938;SDS011;16799;50.844;5.304;2023-07-20T11:54:08;6.60;;;2.30;;
29938;SDS011;16799;50.844;5.304;2023-07-20T11:56:35;1.80;;;1.70;;
29938;SDS011;16799;50.844;5.304;2023-07-20T11:59:00;2.47;;;1.60;;
29938;SDS011;16799;50.844;5.304;2023-07-20T12:01:28;2.90;;;1.60;;
29938;SDS011;16799;50.844;5.304;2023-07-20T12:03:56;2.63;;;2.10;;
29938;SDS011;16799;50.844;5.304;2023-07-20T12:06:30;5.70;;;2.07;;
29938;SDS011;16799;50.844;5.304;2023-07-20T12:08:57;2.57;;;2.37;;
29938;SDS011;16799;50.844;5.304;2023-07-20T12:13:59;2.57;;;2.33;;
29938;SDS011;16799;50.844;5.304;2023-07-20T12:16:28;1.60;;;1.50;;
29938;SDS011;16799;50.844;5.304;2023-07-20T12:21:31;1.40;;;1.30;;
29938;SDS011;16799;50.844;5.304;2023-07-20T12:23:59;3.37;;;1.40;;
29938;SDS011;16799;50.844;5.304;2023-07-20T12:26:25;2.50;;;1.40;;
29938;SDS011;16799;50.844;5.304;2023-07-20T12:28:51;1.40;;;1.20;;
29938;SDS011;16799;50.844;5.304;2023-07-20T12:31:17;4.40;;;1.90;;
29938;SDS011;16799;50.844;5.304;2023-07-20T12:33:43;1.50;;;1.40;;
29938;SDS011;16799;50.844;5.304;2023-07-20T12:36:09;10.93;;;1.40;;
29938;SDS011;16799;50.844;5.304;2023-07-20T12:38:35;1.40;;;0.93;;
29938;SDS011;16799;50.844;5.304;2023-07-20T12:41:01;3.53;;;1.53;;
29938;SDS011;16799;50.844;5.304;2023-07-20T12:43:28;3.00;;;1.10;;
29938;SDS011;16799;50.844;5.304;2023-07-20T12:45:54;3.30;;;1.40;;
29938;SDS011;16799;50.844;5.304;2023-07-20T12:48:21;1.27;;;0.90;;
29938;SDS011;16799;50.844;5.304;2023-07-20T12:50:47;2.70;;;1.50;;
29938;SDS011;16799;50.844;5.304;2023-07-20T12:53:13;1.90;;;1.67;;
29938;SDS011;16799;50.844;5.304;2023-07-20T12:55:39;1.03;;;0.93;;
29938;SDS011;16799;50.844;5.304;2023-07-20T12:58:06;1.30;;;1.03;;
29938;SDS011;16799;50.844;5.304;2023-07-20T13:00:33;3.90;;;1.80;;
29938;SDS011;16799;50.844;5.304;2023-07-20T13:02:58;2.93;;;1.40;;
29938;SDS011;16799;50.844;5.304;2023-07-20T13:05:24;1.07;;;0.90;;
29938;SDS011;16799;50.844;5.304;2023-07-20T13:07:50;2.30;;;1.23;;
29938;SDS011;16799;50.844;5.304;2023-07-20T13:10:16;1.90;;;1.60;;
29938;SDS011;16799;50.844;5.304;2023-07-20T13:12:44;1.20;;;1.10;;
29938;SDS011;16799;50.844;5.304;2023-07-20T13:15:10;0.90;;;0.80;;
29938;SDS011;16799;50.844;5.304;2023-07-20T13:17:36;1.47;;;0.80;;
29938;SDS011;16799;50.844;5.304;2023-07-20T13:20:06;9.10;;;1.20;;
29938;SDS011;16799;50.844;5.304;2023-07-20T13:22:35;0.83;;;0.80;;
29938;SDS011;16799;50.844;5.304;2023-07-20T13:25:00;1.77;;;0.87;;
29938;SDS011;16799;50.844;5.304;2023-07-20T13:27:26;3.43;;;1.00;;
29938;SDS011;16799;50.844;5.304;2023-07-20T13:29:52;1.27;;;1.17;;
29938;SDS011;16799;50.844;5.304;2023-07-20T13:32:18;1.07;;;0.97;;
29938;SDS011;16799;50.844;5.304;2023-07-20T13:34:44;5.10;;;1.37;;
29938;SDS011;16799;50.844;5.304;2023-07-20T13:37:10;1.20;;;0.90;;
29938;SDS011;16799;50.844;5.304;2023-07-20T13:39:36;1.33;;;1.20;;
29938;SDS011;16799;50.844;5.304;2023-07-20T13:42:02;1.00;;;0.80;;
29938;SDS011;16799;50.844;5.304;2023-07-20T13:44:30;2.20;;;1.80;;
29938;SDS011;16799;50.844;5.304;2023-07-20T13:46:59;2.37;;;1.03;;
29938;SDS011;16799;50.844;5.304;2023-07-20T13:49:26;1.30;;;1.20;;
29938;SDS011;16799;50.844;5.304;2023-07-20T13:51:51;3.60;;;0.97;;
29938;SDS011;16799;50.844;5.304;2023-07-20T13:54:17;0.93;;;0.83;;
29938;SDS011;16799;50.844;5.304;2023-07-20T13:56:43;1.23;;;1.07;;
29938;SDS011;16799;50.844;5.304;2023-07-20T13:59:08;0.80;;;0.80;;
29938;SDS011;16799;50.844;5.304;2023-07-20T14:01:34;1.53;;;1.10;;
29938;SDS011;16799;50.844;5.304;2023-07-20T14:04:00;1.17;;;1.00;;
29938;SDS011;16799;50.844;5.304;2023-07-20T14:06:29;1.60;;;1.20;;
29938;SDS011;16799;50.844;5.304;2023-07-20T14:08:56;3.23;;;1.23;;
29938;SDS011;16799;50.844;5.304;2023-07-20T14:11:22;1.03;;;0.90;;
29938;SDS011;16799;50.844;5.304;2023-07-20T14:13:49;1.20;;;1.10;;
29938;SDS011;16799;50.844;5.304;2023-07-20T14:16:15;5.03;;;1.87;;
29938;SDS011;16799;50.844;5.304;2023-07-20T14:18:41;1.30;;;0.90;;
29938;SDS011;16799;50.844;5.304;2023-07-20T14:21:07;22.67;;;2.93;;
29938;SDS011;16799;50.844;5.304;2023-07-20T14:23:33;1.17;;;1.00;;
29938;SDS011;16799;50.844;5.304;2023-07-20T14:25:59;1.10;;;0.83;;
29938;SDS011;16799;50.844;5.304;2023-07-20T14:28:25;0.80;;;0.60;;
29938;SDS011;16799;50.844;5.304;2023-07-20T14:30:50;1.07;;;0.90;;
29938;SDS011;16799;50.844;5.304;2023-07-20T14:33:16;1.60;;;0.80;;
29938;SDS011;16799;50.844;5.304;2023-07-20T14:35:42;2.27;;;0.80;;
29938;SDS011;16799;50.844;5.304;2023-07-20T14:38:07;2.13;;;0.83;;
29938;SDS011;16799;50.844;5.304;2023-07-20T14:40:33;2.17;;;0.87;;
29938;SDS011;16799;50.844;5.304;2023-07-20T14:42:59;2.00;;;0.70;;
29938;SDS011;16799;50.844;5.304;2023-07-20T14:45:26;0.77;;;0.63;;
29938;SDS011;16799;50.844;5.304;2023-07-20T14:47:52;1.10;;;0.80;;
29938;SDS011;16799;50.844;5.304;2023-07-20T14:50:22;1.13;;;0.63;;
29938;SDS011;16799;50.844;5.304;2023-07-20T14:52:48;2.80;;;0.80;;
29938;SDS011;16799;50.844;5.304;2023-07-20T14:55:14;3.73;;;0.90;;